Time;durP1;ratioP1;P1;durP2;ratioP2;P2;SDS_P1;SDS_P2;PMS_P1;PMS_P2;Temp;Humidity;BMP_temperature;BMP_pressure;BME280_temperature;BME280_humidity;BME280_pressure;Samples;Min_cycle;Max_cycle;Signal;HPM_P1;HPM_P2
2020/12/23 00:00:46;;;;;;;20.93;13.43;;;11.60;95.30;;;;;;5033996;28;20564;-82
2020/12/23 00:03:12;;;;;;;25.37;14.13;;;11.70;95.30;;;;;;5034113;28;20465;-83
2020/12/23 00:05:37;;;;;;;23.40;14.70;;;11.70;95.50;;;;;;5034108;28;20100;-83
2020/12/23 00:08:03;;;;;;;21.47;14.77;;;11.70;95.60;;;;;;5034242;28;20046;-83
2020/12/23 00:10:28;;;;;;;25.73;15.23;;;11.70;95.60;;;;;;5015688;28;20021;-82
2020/12/23 00:12:54;;;;;;;26.50;16.03;;;11.70;95.60;;;;;;5034051;28;20021;-82
2020/12/23 00:15:19;;;;;;;25.67;14.93;;;11.60;95.60;;;;;;5016350;28;20032;-83
2020/12/23 00:17:45;;;;;;;25.93;15.07;;;11.70;95.50;;;;;;5035438;28;20037;-82
2020/12/23 00:20:11;;;;;;;23.87;15.70;;;11.70;95.70;;;;;;5018287;28;20083;-81
2020/12/23 00:22:36;;;;;;;33.77;17.67;;;11.70;95.60;;;;;;5017990;28;20541;-82
2020/12/23 00:25:05;;;;;;;30.77;17.20;;;11.70;95.60;;;;;;5034774;28;20509;-81
2020/12/23 00:27:30;;;;;;;31.03;17.43;;;11.60;95.80;;;;;;5036054;28;20044;-81
2020/12/23 00:29:56;;;;;;;29.53;16.00;;;11.60;95.70;;;;;;5035700;28;20021;-81
2020/12/23 00:32:26;;;;;;;31.73;17.93;;;11.70;95.70;;;;;;5035499;28;20030;-82
2020/12/23 00:34:52;;;;;;;34.30;17.53;;;11.60;95.90;;;;;;5017735;28;20021;-82
2020/12/23 00:37:18;;;;;;;30.90;17.33;;;11.70;95.90;;;;;;5017712;28;20038;-82
2020/12/23 00:39:43;;;;;;;30.23;16.83;;;11.60;95.90;;;;;;5035475;28;20026;-82
2020/12/23 00:42:09;;;;;;;32.10;16.53;;;11.60;95.90;;;;;;5035272;28;20037;-82
2020/12/23 00:44:34;;;;;;;31.03;17.20;;;11.60;95.90;;;;;;5034934;28;20029;-82
2020/12/23 00:47:00;;;;;;;33.77;17.77;;;11.70;95.90;;;;;;5036568;28;20040;-81
2020/12/23 00:49:27;;;;;;;30.97;16.87;;;11.60;95.80;;;;;;5039025;28;20034;-81
2020/12/23 00:51:52;;;;;;;31.63;16.30;;;11.70;95.80;;;;;;5039368;28;20026;-81
2020/12/23 00:54:18;;;;;;;31.60;16.10;;;11.60;95.80;;;;;;5039360;28;20040;-82
2020/12/23 00:56:44;;;;;;;32.37;17.60;;;11.60;96.00;;;;;;5039487;28;20060;-82
2020/12/23 00:59:09;;;;;;;29.80;16.73;;;11.60;95.80;;;;;;5039185;28;20037;-82
2020/12/23 01:01:35;;;;;;;29.77;16.40;;;11.70;95.80;;;;;;5021019;28;20034;-82
2020/12/23 01:04:01;;;;;;;34.00;17.03;;;11.70;95.80;;;;;;5039623;28;20437;-82
2020/12/23 01:06:27;;;;;;;30.70;16.53;;;11.70;95.70;;;;;;5039420;28;20029;-82
2020/12/23 01:08:52;;;;;;;30.30;16.67;;;11.70;95.70;;;;;;5038828;28;20414;-81
2020/12/23 01:11:18;;;;;;;32.30;16.63;;;11.70;95.80;;;;;;5039459;28;20029;-82
2020/12/23 01:13:44;;;;;;;32.83;18.20;;;11.70;95.80;;;;;;5039410;28;20398;-82
2020/12/23 01:16:09;;;;;;;32.23;17.70;;;11.70;95.80;;;;;;5039216;28;20466;-81
2020/12/23 01:18:35;;;;;;;35.07;17.07;;;11.70;95.70;;;;;;5038646;28;20038;-82
2020/12/23 01:21:01;;;;;;;32.57;17.97;;;11.70;95.90;;;;;;5039039;28;20033;-81
2020/12/23 01:23:27;;;;;;;34.37;18.27;;;11.70;95.70;;;;;;5021279;28;20032;-82
2020/12/23 01:25:53;;;;;;;30.40;17.97;;;11.60;95.60;;;;;;5038896;28;20367;-82
2020/12/23 01:28:20;;;;;;;33.27;18.20;;;11.70;95.70;;;;;;5038637;28;20029;-80
2020/12/23 01:30:45;;;;;;;38.60;19.17;;;11.70;95.70;;;;;;5039064;28;20040;-82
2020/12/23 01:33:11;;;;;;;31.67;17.30;;;11.70;95.60;;;;;;5038504;28;20490;-82
2020/12/23 01:35:37;;;;;;;30.33;17.33;;;11.70;95.70;;;;;;5038968;28;20034;-81
2020/12/23 01:38:02;;;;;;;31.47;18.63;;;11.70;95.60;;;;;;5038504;28;20040;-82
2020/12/23 01:40:28;;;;;;;34.70;18.87;;;11.70;95.60;;;;;;5019998;28;20100;-82
2020/12/23 01:42:54;;;;;;;33.43;18.87;;;11.70;95.50;;;;;;5038352;28;20083;-82
2020/12/23 01:45:19;;;;;;;34.00;18.63;;;11.70;95.60;;;;;;5039427;28;20041;-81
2020/12/23 01:47:45;;;;;;;35.60;19.17;;;11.70;95.60;;;;;;5038733;28;20021;-82
2020/12/23 01:50:14;;;;;;;34.37;17.70;;;11.70;95.50;;;;;;5038440;28;20417;-81
2020/12/23 01:52:40;;;;;;;;;;;11.70;95.50;;;;;;5038589;28;20045;-82
2020/12/23 01:55:11;;;;;;;31.20;16.73;;;11.70;95.50;;;;;;5038162;28;19940;-83
2020/12/23 01:57:36;;;;;;;29.40;17.57;;;11.60;95.50;;;;;;5020180;28;20026;-83
2020/12/23 02:00:06;;;;;;;37.07;18.73;;;11.70;95.50;;;;;;5037656;28;20032;-82
2020/12/23 02:02:37;;;;;;;30.57;17.10;;;11.70;95.50;;;;;;5037827;28;20029;-82
2020/12/23 02:05:07;;;;;;;32.80;16.03;;;11.70;95.60;;;;;;5038393;28;20068;-82
2020/12/23 02:07:34;;;;;;;29.50;16.40;;;11.70;95.50;;;;;;5038450;28;20021;-82
2020/12/23 02:10:02;;;;;;;29.73;16.60;;;11.70;95.80;;;;;;5037914;28;20018;-81
2020/12/23 02:12:28;;;;;;;29.42;15.57;;;11.70;95.50;;;;;;5038121;28;20022;-82
2020/12/23 02:14:54;;;;;;;30.80;15.53;;;11.70;95.50;;;;;;5038441;28;20057;-81
2020/12/23 02:17:21;;;;;;;33.33;15.90;;;11.70;95.50;;;;;;5037994;28;20121;-82
2020/12/23 02:19:49;;;;;;;31.63;15.53;;;11.70;95.60;;;;;;5038158;28;20071;-82
2020/12/23 02:22:28;;;;;;;29.73;15.23;;;11.60;95.50;;;;;;5038287;28;20025;-82
2020/12/23 02:24:54;;;;;;;27.63;13.85;;;11.70;95.50;;;;;;5037793;28;20057;-81
2020/12/23 02:27:21;;;;;;;27.13;13.67;;;11.70;95.50;;;;;;5037873;28;20026;-82
2020/12/23 02:29:52;;;;;;;25.17;13.27;;;11.70;95.50;;;;;;5037520;28;20041;-82
2020/12/23 02:32:18;;;;;;;24.97;13.67;;;11.60;95.50;;;;;;5037496;28;20041;-82
2020/12/23 02:34:44;;;;;;;29.20;13.70;;;11.60;95.40;;;;;;5037887;28;20482;-82
2020/12/23 02:37:10;;;;;;;24.20;13.97;;;11.70;95.50;;;;;;5019751;28;20071;-82
2020/12/23 02:39:37;;;;;;;24.07;12.93;;;11.70;95.50;;;;;;5037922;28;20021;-82
2020/12/23 02:42:05;;;;;;;25.53;13.47;;;11.70;95.40;;;;;;5037546;28;20076;-82
2020/12/23 02:44:31;;;;;;;27.67;13.57;;;11.70;95.50;;;;;;5019348;28;20026;-82
2020/12/23 02:47:02;;;;;;;26.93;12.60;;;11.70;95.50;;;;;;5037697;28;20029;-82
2020/12/23 02:49:28;;;;;;;25.70;13.37;;;11.70;95.50;;;;;;5037713;28;20036;-82
2020/12/23 02:51:55;;;;;;;25.40;13.73;;;11.70;95.40;;;;;;5037939;28;20033;-82
2020/12/23 02:54:22;;;;;;;26.30;13.17;;;11.60;95.50;;;;;;5037317;28;20368;-81
2020/12/23 02:56:47;;;;;;;28.43;14.03;;;11.70;95.50;;;;;;5037500;28;20482;-81
2020/12/23 02:59:13;;;;;;;23.50;12.83;;;11.70;95.40;;;;;;5037197;28;20040;-83
2020/12/23 03:01:39;;;;;;;27.10;13.83;;;11.70;95.40;;;;;;5037675;28;20477;-81
2020/12/23 03:04:05;;;;;;;28.93;15.10;;;11.70;95.40;;;;;;5037974;28;20032;-82
2020/12/23 03:06:32;;;;;;;24.87;13.00;;;11.70;95.50;;;;;;5037409;28;20100;-81
2020/12/23 03:09:00;;;;;;;25.90;14.03;;;11.70;95.50;;;;;;5036881;28;20032;-82
2020/12/23 03:11:26;;;;;;;26.27;13.77;;;11.70;95.50;;;;;;5035875;28;20040;-82
2020/12/23 03:13:51;;;;;;;25.87;13.97;;;11.70;95.50;;;;;;5036947;28;20022;-82
2020/12/23 03:16:17;;;;;;;25.93;13.60;;;11.60;95.50;;;;;;5037005;28;20047;-81
2020/12/23 03:18:43;;;;;;;29.33;14.37;;;11.60;95.50;;;;;;5036504;28;20045;-82
2020/12/23 03:21:09;;;;;;;26.93;13.40;;;11.60;95.40;;;;;;5036934;28;20025;-82
2020/12/23 03:23:35;;;;;;;23.90;13.53;;;11.70;95.50;;;;;;5037755;28;20024;-82
2020/12/23 03:26:02;;;;;;;26.50;14.77;;;11.70;95.50;;;;;;5036973;28;20025;-81
2020/12/23 03:28:28;;;;;;;23.13;13.70;;;11.60;95.40;;;;;;5037131;28;20017;-81
2020/12/23 03:30:53;;;;;;;26.13;14.00;;;11.70;95.50;;;;;;5036277;28;20045;-81
2020/12/23 03:33:19;;;;;;;26.97;14.37;;;11.70;95.40;;;;;;5036693;28;20022;-82
2020/12/23 03:35:45;;;;;;;26.53;14.23;;;11.70;95.40;;;;;;5036727;28;20026;-82
2020/12/23 03:38:10;;;;;;;24.27;13.83;;;11.70;95.50;;;;;;5036883;28;20026;-81
2020/12/23 03:40:37;;;;;;;25.53;13.20;;;11.70;95.50;;;;;;5018234;28;20037;-82
2020/12/23 03:43:02;;;;;;;25.80;14.37;;;11.70;95.50;;;;;;5036960;28;20021;-82
2020/12/23 03:45:28;;;;;;;33.70;15.07;;;11.70;95.50;;;;;;5036326;28;20375;-81
2020/12/23 03:47:53;;;;;;;23.43;14.10;;;11.70;95.50;;;;;;5018523;28;20093;-82
2020/12/23 03:50:19;;;;;;;26.37;14.07;;;11.60;95.50;;;;;;5036287;28;20079;-82
2020/12/23 03:52:45;;;;;;;26.60;14.03;;;11.60;95.50;;;;;;5036147;28;20105;-83
2020/12/23 03:55:11;;;;;;;26.53;14.73;;;11.60;95.50;;;;;;5036145;28;20100;-82
2020/12/23 03:57:37;;;;;;;24.53;14.10;;;11.60;95.70;;;;;;5018532;28;20025;-82
2020/12/23 04:00:10;;;;;;;24.57;14.47;;;11.60;95.60;;;;;;5036420;28;20026;-82
2020/12/23 04:02:35;;;;;;;24.57;13.87;;;11.60;95.60;;;;;;5036435;28;20022;-82
2020/12/23 04:05:01;;;;;;;27.10;14.23;;;11.60;95.70;;;;;;5035986;28;20024;-82
2020/12/23 04:07:28;;;;;;;26.30;12.83;;;11.60;95.70;;;;;;5017566;28;20108;-81
2020/12/23 04:09:54;;;;;;;26.57;13.70;;;11.60;95.80;;;;;;5035491;28;20439;-82
2020/12/23 04:12:22;;;;;;;22.20;13.17;;;11.70;95.70;;;;;;5018843;28;20057;-83
2020/12/23 04:14:47;;;;;;;23.30;12.63;;;11.60;95.70;;;;;;5036286;28;20021;-83
2020/12/23 04:17:13;;;;;;;23.73;12.97;;;11.60;95.70;;;;;;5036300;28;20399;-82
2020/12/23 04:19:39;;;;;;;21.20;12.60;;;11.60;95.70;;;;;;5036332;28;20026;-82
2020/12/23 04:22:05;;;;;;;20.97;12.60;;;11.60;95.70;;;;;;5035689;28;20506;-82
2020/12/23 04:24:30;;;;;;;22.33;12.57;;;11.60;95.60;;;;;;5036044;28;20029;-82
2020/12/23 04:26:56;;;;;;;22.13;12.93;;;11.70;95.70;;;;;;5018801;28;20029;-83
2020/12/23 04:29:22;;;;;;;19.53;11.97;;;11.70;95.70;;;;;;5036284;28;20116;-82
2020/12/23 04:31:48;;;;;;;19.57;11.50;;;11.70;95.70;;;;;;5036556;28;20490;-82
2020/12/23 04:34:13;;;;;;;18.90;11.73;;;11.70;95.70;;;;;;5036489;28;20391;-82
2020/12/23 04:36:40;;;;;;;19.80;11.70;;;11.60;95.70;;;;;;5035997;28;20068;-82
2020/12/23 04:39:06;;;;;;;19.97;11.83;;;11.60;95.80;;;;;;5036298;28;20026;-81
2020/12/23 04:41:35;;;;;;;21.87;12.43;;;11.70;95.80;;;;;;5036987;28;20029;-82
2020/12/23 04:44:07;;;;;;;22.38;12.55;;;11.70;95.80;;;;;;5036882;28;20112;-82
2020/12/23 04:46:39;;;;;;;22.70;12.43;;;11.70;95.90;;;;;;5036696;28;20037;-82
2020/12/23 04:49:06;;;;;;;19.50;11.63;;;11.60;95.90;;;;;;5018780;28;20018;-82
2020/12/23 04:51:34;;;;;;;22.50;11.93;;;11.70;95.90;;;;;;5037141;28;20072;-81
2020/12/23 04:54:02;;;;;;;21.53;10.83;;;11.60;96.00;;;;;;5037315;28;20028;-82
2020/12/23 04:56:30;;;;;;;22.73;11.83;;;11.60;95.90;;;;;;5037322;28;20025;-82
2020/12/23 04:58:56;;;;;;;19.57;11.80;;;11.70;95.90;;;;;;5036540;28;20279;-82
2020/12/23 05:01:22;;;;;;;21.17;11.90;;;11.60;95.90;;;;;;5036651;28;20037;-82
2020/12/23 05:03:48;;;;;;;21.27;12.07;;;11.70;95.90;;;;;;5037078;28;20021;-82
2020/12/23 05:06:15;;;;;;;18.60;11.43;;;11.60;95.90;;;;;;5037082;28;20025;-82
2020/12/23 05:08:40;;;;;;;20.70;11.60;;;11.60;96.00;;;;;;5035470;28;20022;-82
2020/12/23 05:11:07;;;;;;;20.23;11.17;;;11.60;96.00;;;;;;5035973;28;20040;-82
2020/12/23 05:13:37;;;;;;;21.40;11.17;;;11.60;96.00;;;;;;5017467;28;20033;-82
2020/12/23 05:16:11;;;;;;;16.80;10.07;;;11.60;96.00;;;;;;5035649;28;20036;-82
2020/12/23 05:18:40;;;;;;;16.70;9.80;;;11.60;96.00;;;;;;5035139;28;20045;-81
2020/12/23 05:21:14;;;;;;;18.10;10.00;;;11.60;96.00;;;;;;5034783;28;20037;-82
2020/12/23 05:23:44;;;;;;;17.77;9.80;;;11.70;96.10;;;;;;5035598;28;20017;-82
2020/12/23 05:26:11;;;;;;;16.60;8.73;;;11.60;96.00;;;;;;5035362;28;20028;-82
2020/12/23 05:28:37;;;;;;;14.30;8.80;;;11.60;96.00;;;;;;5035112;28;20101;-82
2020/12/23 05:31:05;;;;;;;14.30;9.03;;;11.60;96.00;;;;;;5035318;28;20030;-82
2020/12/23 05:33:35;;;;;;;11.53;7.20;;;11.60;96.00;;;;;;5036938;28;20074;-82
2020/12/23 05:36:26;;;;;;;13.73;8.20;;;11.60;96.00;;;;;;5038919;28;20018;-81
2020/12/23 05:38:52;;;;;;;13.20;7.10;;;11.60;96.00;;;;;;5036070;28;20205;-81
2020/12/23 05:41:18;;;;;;;13.70;8.73;;;11.60;96.00;;;;;;5039286;28;20153;-82
2020/12/23 05:43:44;;;;;;;13.23;7.80;;;11.60;96.00;;;;;;5038990;28;20588;-82
2020/12/23 05:46:12;;;;;;;14.47;8.23;;;11.70;96.10;;;;;;5039352;28;20040;-82
2020/12/23 05:48:40;;;;;;;11.87;7.60;;;11.70;96.00;;;;;;5038926;28;20036;-82
2020/12/23 05:51:07;;;;;;;13.00;7.63;;;11.70;96.00;;;;;;5039028;28;20033;-82
2020/12/23 05:53:34;;;;;;;12.90;7.77;;;11.70;96.10;;;;;;5039379;28;20045;-82
2020/12/23 05:56:01;;;;;;;12.47;6.87;;;11.70;96.10;;;;;;5038865;28;20488;-82
2020/12/23 05:58:33;;;;;;;11.17;7.00;;;11.70;96.00;;;;;;5038395;28;20072;-81
2020/12/23 06:01:00;;;;;;;12.00;6.47;;;11.60;96.00;;;;;;5020440;28;20390;-82
2020/12/23 06:03:29;;;;;;;11.43;7.17;;;11.60;96.00;;;;;;5038352;28;20047;-82
2020/12/23 06:06:02;;;;;;;11.13;6.77;;;11.60;95.90;;;;;;5020933;28;20022;-82
2020/12/23 06:08:36;;;;;;;14.07;7.97;;;11.70;96.10;;;;;;5037921;28;20474;-82
2020/12/23 06:11:27;;;;;;;13.43;7.43;;;11.60;96.00;;;;;;5020033;28;20036;-82
2020/12/23 06:14:32;;;;;;;13.10;7.80;;;11.60;96.00;;;;;;5038580;28;20454;-82
2020/12/23 06:16:57;;;;;;;12.40;8.60;;;11.60;96.00;;;;;;4960608;28;20027;-81
2020/12/23 06:19:27;;;;;;;12.20;7.60;;;11.60;96.10;;;;;;5027060;28;20072;-82
2020/12/23 06:21:55;;;;;;;11.97;7.47;;;11.60;96.00;;;;;;5037571;28;20033;-82
2020/12/23 06:24:21;;;;;;;12.57;7.07;;;11.60;96.00;;;;;;5038034;28;20017;-82
2020/12/23 06:26:49;;;;;;;12.47;7.10;;;11.60;96.00;;;;;;5038001;28;20148;-81
2020/12/23 06:29:21;;;;;;;13.20;7.70;;;11.60;96.00;;;;;;5037416;28;20143;-81
2020/12/23 06:31:56;;;;;;;11.43;6.93;;;11.60;96.00;;;;;;5037866;28;20302;-82
2020/12/23 06:34:29;;;;;;;11.47;6.47;;;11.60;96.00;;;;;;5038084;28;20077;-82
2020/12/23 06:36:56;;;;;;;11.97;6.97;;;11.60;96.00;;;;;;5037867;28;20026;-82
2020/12/23 06:39:24;;;;;;;11.13;6.60;;;11.70;95.90;;;;;;5037101;28;20033;-82
2020/12/23 06:41:52;;;;;;;11.33;6.50;;;11.70;95.90;;;;;;5019510;28;20498;-81
2020/12/23 06:44:18;;;;;;;11.30;6.20;;;11.70;95.90;;;;;;5037232;28;20653;-82
2020/12/23 06:46:58;;;;;;;12.10;7.33;;;11.70;96.30;;;;;;5037852;28;20208;-82
2020/12/23 06:49:41;;;;;;;11.30;6.93;;;11.70;96.00;;;;;;5037014;28;20026;-82
2020/12/23 06:52:22;;;;;;;12.80;7.10;;;11.60;96.00;;;;;;5019890;28;20028;-82
2020/12/23 06:54:51;;;;;;;9.97;6.80;;;11.70;96.00;;;;;;5037013;28;20025;-82
2020/12/23 06:57:35;;;;;;;10.77;6.43;;;11.70;96.00;;;;;;5036768;28;20053;-82
2020/12/23 07:00:01;;;;;;;12.57;7.33;;;11.70;96.00;;;;;;5036879;28;20037;-81
2020/12/23 07:02:27;;;;;;;12.90;6.80;;;11.70;96.00;;;;;;5037868;28;20030;-82
2020/12/23 07:04:54;;;;;;;15.63;8.10;;;11.70;96.00;;;;;;5037164;28;20028;-82
2020/12/23 07:07:40;;;;;;;14.17;7.50;;;11.70;95.90;;;;;;5038383;28;20028;-82
2020/12/23 07:10:12;;;;;;;10.40;6.93;;;11.70;96.00;;;;;;5037488;28;20048;-82
2020/12/23 07:12:51;;;;;;;10.80;6.87;;;11.70;96.00;;;;;;5037022;28;20421;-82
2020/12/23 07:15:24;;;;;;;;;;;11.70;96.00;;;;;;5020995;28;20094;-82
2020/12/23 07:17:56;;;;;;;12.67;7.50;;;11.70;95.90;;;;;;5019971;28;20325;-81
2020/12/23 07:20:24;;;;;;;15.10;6.90;;;11.70;95.90;;;;;;5037236;28;20025;-82
2020/12/23 07:22:53;;;;;;;9.63;5.73;;;11.70;95.90;;;;;;5037792;28;20048;-82
2020/12/23 07:25:18;;;;;;;7.70;5.03;;;11.70;95.90;;;;;;5019651;28;20024;-82
2020/12/23 07:27:46;;;;;;;10.67;4.87;;;11.60;95.90;;;;;;5036861;28;20414;-82
2020/12/23 07:30:12;;;;;;;9.17;5.20;;;11.60;95.90;;;;;;5036333;28;20434;-83
2020/12/23 07:32:38;;;;;;;6.93;4.23;;;11.70;95.90;;;;;;5036649;28;20025;-82
2020/12/23 07:35:04;;;;;;;7.53;3.87;;;11.70;95.90;;;;;;5037411;28;20079;-82
2020/12/23 07:37:39;;;;;;;8.10;4.73;;;11.70;95.90;;;;;;5037090;28;20053;-82
2020/12/23 07:40:17;;;;;;;6.83;4.20;;;11.70;95.90;;;;;;5036840;28;20021;-82
2020/12/23 07:42:50;;;;;;;7.37;4.20;;;11.70;95.90;;;;;;5036999;28;20029;-82
2020/12/23 07:45:19;;;;;;;7.03;4.03;;;11.70;95.80;;;;;;5019617;28;20323;-82
2020/12/23 07:47:59;;;;;;;10.47;5.00;;;11.70;95.80;;;;;;5037867;28;20033;-82
2020/12/23 07:50:26;;;;;;;7.80;4.80;;;11.70;95.90;;;;;;5035936;28;20041;-82
2020/12/23 07:52:53;;;;;;;7.97;4.40;;;11.70;95.80;;;;;;5037041;28;20056;-82
2020/12/23 07:55:20;;;;;;;6.63;4.10;;;11.70;96.10;;;;;;5019236;28;20490;-82
2020/12/23 07:57:49;;;;;;;8.77;4.27;;;11.60;95.80;;;;;;5036190;28;20533;-83
2020/12/23 08:00:15;;;;;;;7.65;4.78;;;11.70;95.70;;;;;;5037444;28;20057;-82
2020/12/23 08:02:41;;;;;;;7.13;4.30;;;11.70;95.80;;;;;;5037156;28;20503;-84
2020/12/23 08:05:09;;;;;;;5.80;4.10;;;11.70;95.80;;;;;;5019116;28;20067;-82
2020/12/23 08:07:43;;;;;;;7.90;4.57;;;11.70;95.70;;;;;;5019420;28;20028;-83
2020/12/23 08:10:12;;;;;;;7.87;4.30;;;11.70;95.80;;;;;;5036691;28;20072;-83
2020/12/23 08:12:39;;;;;;;7.70;4.57;;;11.70;95.70;;;;;;5036766;28;20502;-82
2020/12/23 08:15:09;;;;;;;8.33;4.63;;;11.70;95.70;;;;;;5035936;28;20036;-82
2020/12/23 08:17:35;;;;;;;8.10;5.00;;;11.70;95.70;;;;;;5036744;28;20060;-82
2020/12/23 08:20:06;;;;;;;9.40;4.40;;;11.70;95.70;;;;;;5036712;28;20029;-82
2020/12/23 08:22:34;;;;;;;7.70;4.70;;;11.70;95.70;;;;;;5036295;28;20064;-82
2020/12/23 08:25:01;;;;;;;6.97;4.73;;;11.70;95.70;;;;;;5036459;28;20025;-81
2020/12/23 08:27:28;;;;;;;6.43;4.47;;;11.70;95.70;;;;;;5036389;28;20437;-82
2020/12/23 08:29:53;;;;;;;9.10;5.00;;;11.70;95.70;;;;;;5036814;28;20025;-82
2020/12/23 08:32:28;;;;;;;9.67;6.00;;;11.70;95.70;;;;;;5036618;28;20033;-82
2020/12/23 08:34:58;;;;;;;7.07;5.00;;;11.70;95.70;;;;;;5038545;28;20037;-82
2020/12/23 08:37:24;;;;;;;8.60;5.33;;;11.70;95.80;;;;;;5036258;28;20151;-82
2020/12/23 08:39:57;;;;;;;9.03;4.80;;;11.70;95.70;;;;;;5035425;28;20029;-81
2020/12/23 08:42:23;;;;;;;8.83;5.13;;;11.70;95.70;;;;;;5035842;28;20092;-81
2020/12/23 08:44:50;;;;;;;7.17;4.50;;;11.70;95.70;;;;;;5018111;28;20079;-82
2020/12/23 08:47:33;;;;;;;7.87;5.00;;;11.70;95.70;;;;;;5018428;28;20041;-82
2020/12/23 08:50:00;;;;;;;8.17;4.77;;;11.80;95.70;;;;;;5035524;28;20021;-82
2020/12/23 08:52:27;;;;;;;8.73;5.03;;;11.70;95.70;;;;;;5036289;28;20033;-83
2020/12/23 08:54:53;;;;;;;7.93;5.33;;;11.70;95.70;;;;;;5036137;28;20022;-82
2020/12/23 08:57:28;;;;;;;8.57;5.63;;;11.80;95.70;;;;;;5035982;28;20037;-82
2020/12/23 08:59:55;;;;;;;7.53;4.87;;;11.70;95.70;;;;;;5035271;28;20026;-82
2020/12/23 09:02:22;;;;;;;7.77;5.00;;;11.70;95.70;;;;;;5035541;28;20030;-82
2020/12/23 09:04:47;;;;;;;8.07;4.83;;;11.80;95.70;;;;;;5035814;28;20032;-82
2020/12/23 09:07:20;;;;;;;9.47;5.37;;;11.80;95.70;;;;;;5017585;28;20033;-81
2020/12/23 09:09:45;;;;;;;8.37;5.33;;;11.70;95.60;;;;;;5039324;28;20026;-82
2020/12/23 09:12:19;;;;;;;9.43;5.30;;;11.80;95.70;;;;;;5039320;28;20601;-82
2020/12/23 09:14:44;;;;;;;10.13;7.10;;;11.80;95.70;;;;;;5040011;28;20075;-82
2020/12/23 09:17:19;;;;;;;8.97;5.93;;;11.70;95.70;;;;;;5039765;28;20037;-82
2020/12/23 09:20:04;;;;;;;9.07;5.27;;;11.80;95.70;;;;;;5039390;28;20049;-83
2020/12/23 09:22:41;;;;;;;8.53;4.53;;;11.80;95.60;;;;;;5039672;28;20022;-82
2020/12/23 09:25:15;;;;;;;6.93;4.10;;;11.80;95.70;;;;;;5040590;28;20024;-82
2020/12/23 09:27:41;;;;;;;7.60;4.90;;;11.80;95.70;;;;;;5039411;28;20080;-83
2020/12/23 09:30:07;;;;;;;8.33;5.20;;;11.80;95.70;;;;;;5040453;28;20418;-83
2020/12/23 09:32:34;;;;;;;9.27;5.07;;;11.80;95.70;;;;;;5040496;28;20486;-82
2020/12/23 09:35:15;;;;;;;8.93;5.47;;;11.80;95.70;;;;;;5022427;28;20167;-82
2020/12/23 09:37:43;;;;;;;7.73;4.83;;;11.90;95.80;;;;;;5021535;28;20036;-83
2020/12/23 09:40:09;;;;;;;7.70;4.60;;;11.80;95.80;;;;;;5038840;28;20437;-82
2020/12/23 09:42:35;;;;;;;9.03;5.40;;;11.90;95.90;;;;;;5039046;28;20112;-83
2020/12/23 09:45:00;;;;;;;11.70;6.23;;;11.90;95.90;;;;;;5039675;28;20395;-82
2020/12/23 09:47:26;;;;;;;8.10;5.50;;;11.90;95.90;;;;;;5039832;28;20033;-81
2020/12/23 09:49:51;;;;;;;9.73;6.07;;;11.90;95.90;;;;;;5039077;28;20053;-82
2020/12/23 09:52:17;;;;;;;8.23;5.33;;;11.90;95.90;;;;;;5040353;28;20033;-82
2020/12/23 09:54:43;;;;;;;9.00;5.37;;;11.90;95.90;;;;;;5022289;28;20437;-83
2020/12/23 09:57:08;;;;;;;8.30;5.53;;;12.00;96.00;;;;;;5040647;28;20033;-82
2020/12/23 09:59:34;;;;;;;7.53;4.60;;;12.00;95.90;;;;;;5039847;28;20449;-83
2020/12/23 10:01:59;;;;;;;8.20;4.80;;;12.00;96.00;;;;;;5040438;28;20029;-83
2020/12/23 10:04:25;;;;;;;6.35;4.22;;;12.00;96.10;;;;;;5040900;28;20494;-82
2020/12/23 10:06:50;;;;;;;7.93;4.73;;;12.00;96.10;;;;;;5040164;28;20022;-81
2020/12/23 10:09:16;;;;;;;11.55;5.90;;;12.00;96.10;;;;;;5040338;28;20029;-82
2020/12/23 10:11:42;;;;;;;10.63;4.82;;;12.00;96.00;;;;;;5040790;28;20077;-83
2020/12/23 10:14:07;;;;;;;7.13;4.65;;;12.00;96.00;;;;;;5040567;28;20029;-83
2020/12/23 10:16:33;;;;;;;8.80;4.72;;;12.00;96.00;;;;;;5040118;28;20029;-82
2020/12/23 10:18:59;;;;;;;8.30;4.73;;;12.00;96.00;;;;;;5037880;28;20041;-82
2020/12/23 10:21:25;;;;;;;10.25;4.60;;;12.00;96.00;;;;;;5038937;28;20081;-82
2020/12/23 10:23:51;;;;;;;8.90;4.93;;;12.00;96.00;;;;;;5038721;28;20117;-82
2020/12/23 10:26:17;;;;;;;8.38;5.18;;;12.00;96.00;;;;;;5039121;28;20028;-82
2020/12/23 10:28:43;;;;;;;10.15;4.72;;;12.10;96.10;;;;;;5021032;28;20021;-82
2020/12/23 10:31:08;;;;;;;10.05;5.22;;;12.10;96.00;;;;;;5020662;28;20029;-82
2020/12/23 10:33:34;;;;;;;7.80;5.10;;;12.10;95.90;;;;;;5021052;28;20022;-82
2020/12/23 10:36:01;;;;;;;8.00;4.85;;;12.10;96.00;;;;;;5038608;28;20032;-83
2020/12/23 10:38:28;;;;;;;8.23;4.35;;;12.00;95.90;;;;;;5038611;28;20087;-82
2020/12/23 10:40:57;;;;;;;8.77;4.88;;;12.10;96.00;;;;;;5038004;28;20025;-82
2020/12/23 10:43:23;;;;;;;10.70;5.85;;;12.10;96.00;;;;;;5038258;28;20022;-82
2020/12/23 10:45:49;;;;;;;9.35;5.88;;;12.10;96.00;;;;;;5038576;28;20091;-82
2020/12/23 10:48:16;;;;;;;10.32;5.32;;;12.10;96.30;;;;;;5038561;28;20018;-82
2020/12/23 10:50:42;;;;;;;9.02;5.45;;;12.10;96.00;;;;;;5039102;28;20048;-82
2020/12/23 10:53:08;;;;;;;8.90;5.88;;;12.10;96.00;;;;;;5020964;28;20033;-82
2020/12/23 10:55:33;;;;;;;9.63;5.68;;;12.10;96.10;;;;;;5038865;28;20029;-83
2020/12/23 10:57:59;;;;;;;8.98;5.10;;;12.10;96.00;;;;;;5038682;28;20040;-83
2020/12/23 11:00:25;;;;;;;7.65;5.30;;;12.10;96.10;;;;;;5038721;28;20025;-82
2020/12/23 11:02:50;;;;;;;8.50;5.40;;;12.10;96.00;;;;;;5039085;28;20075;-82
2020/12/23 11:05:16;;;;;;;7.70;5.07;;;12.10;96.00;;;;;;5039056;28;20067;-81
2020/12/23 11:07:42;;;;;;;8.10;5.00;;;12.10;96.00;;;;;;5039353;28;20028;-82
2020/12/23 11:10:09;;;;;;;7.32;4.97;;;12.10;96.00;;;;;;5038070;28;20025;-82
2020/12/23 11:12:35;;;;;;;6.18;4.95;;;12.10;96.00;;;;;;5038438;28;20056;-82
2020/12/23 11:15:00;;;;;;;6.13;3.97;;;12.10;96.00;;;;;;5038273;28;20032;-82
2020/12/23 11:17:26;;;;;;;6.47;4.10;;;12.10;96.00;;;;;;5037334;28;20068;-82
2020/12/23 11:19:54;;;;;;;8.32;4.10;;;12.10;95.90;;;;;;5037883;28;20025;-82
2020/12/23 11:22:20;;;;;;;8.00;4.50;;;12.10;95.90;;;;;;5037634;28;20021;-82
2020/12/23 11:24:46;;;;;;;7.22;4.40;;;12.10;95.90;;;;;;5038073;28;20635;-82
2020/12/23 11:27:12;;;;;;;5.40;3.67;;;12.10;95.90;;;;;;5038501;28;20026;-82
2020/12/23 11:29:37;;;;;;;7.95;3.60;;;12.10;95.90;;;;;;5038095;28;20021;-82
2020/12/23 11:32:03;;;;;;;7.13;3.97;;;12.10;95.90;;;;;;5036940;28;20037;-82
2020/12/23 11:34:28;;;;;;;5.20;3.72;;;12.10;95.90;;;;;;5038340;28;20112;-82
2020/12/23 11:36:59;;;;;;;7.65;3.80;;;12.10;96.10;;;;;;5037641;28;20033;-83
2020/12/23 11:39:24;;;;;;;6.20;3.38;;;12.10;96.20;;;;;;5039013;28;20022;-82
2020/12/23 11:41:55;;;;;;;5.68;3.53;;;12.10;95.90;;;;;;5019383;28;20029;-82
2020/12/23 11:44:20;;;;;;;8.20;3.97;;;12.10;95.90;;;;;;5037441;28;20065;-82
2020/12/23 11:46:47;;;;;;;6.20;3.38;;;12.10;95.80;;;;;;5020229;28;20026;-82
2020/12/23 11:49:13;;;;;;;7.40;3.47;;;12.10;96.10;;;;;;5037098;28;20298;-82
2020/12/23 11:51:39;;;;;;;6.00;3.20;;;12.10;95.90;;;;;;5037381;28;20032;-83
2020/12/23 11:54:05;;;;;;;7.53;3.63;;;12.00;95.90;;;;;;5038407;28;20025;-83
2020/12/23 11:56:30;;;;;;;6.47;3.15;;;12.10;95.90;;;;;;5036897;28;20032;-82
2020/12/23 11:58:56;;;;;;;6.50;3.25;;;12.10;95.90;;;;;;5018575;28;20029;-83
2020/12/23 12:01:22;;;;;;;5.72;2.83;;;12.10;96.00;;;;;;5037097;28;20025;-82
2020/12/23 12:03:47;;;;;;;4.65;2.78;;;12.00;96.00;;;;;;5036346;28;20063;-82
2020/12/23 12:06:17;;;;;;;7.57;3.40;;;12.00;96.10;;;;;;5035951;28;20037;-82
2020/12/23 12:08:43;;;;;;;6.80;3.65;;;12.00;96.00;;;;;;5036058;28;20017;-82
2020/12/23 12:11:09;;;;;;;8.05;3.60;;;12.00;96.10;;;;;;5017574;28;20060;-82
2020/12/23 12:13:34;;;;;;;6.03;2.90;;;11.90;96.20;;;;;;5035919;28;20028;-83
2020/12/23 12:16:00;;;;;;;8.15;3.67;;;11.90;96.30;;;;;;5036244;28;20025;-82
2020/12/23 12:18:25;;;;;;;6.43;3.10;;;11.90;96.40;;;;;;5035170;28;20048;-83
2020/12/23 12:20:51;;;;;;;6.63;3.40;;;11.90;96.60;;;;;;5033766;28;20389;-82
2020/12/23 12:23:17;;;;;;;6.77;3.27;;;11.90;96.60;;;;;;5033951;28;20078;-83
2020/12/23 12:25:42;;;;;;;5.00;3.00;;;11.90;96.70;;;;;;5034635;28;20382;-82
2020/12/23 12:28:08;;;;;;;6.40;2.90;;;11.90;96.90;;;;;;5035535;28;20022;-83
2020/12/23 12:30:35;;;;;;;4.80;2.23;;;11.80;96.50;;;;;;5034666;28;20069;-83
2020/12/23 12:33:01;;;;;;;5.50;2.50;;;11.80;96.40;;;;;;5034687;28;20360;-82
2020/12/23 12:35:27;;;;;;;4.00;2.20;;;11.80;96.50;;;;;;5016824;28;20116;-83
2020/12/23 12:37:53;;;;;;;6.23;2.90;;;11.80;96.40;;;;;;5016403;28;20494;-83
2020/12/23 12:40:18;;;;;;;9.83;4.13;;;11.80;96.10;;;;;;5034233;28;20033;-82